sensor_id;sensor_type;location;lat;lon;timestamp;pressure;altitude;pressure_sealevel;temperature;humidity
43745;BME280;29359;53.048;8.732;2023-04-30T00:00:15;102434.97;;;5.79;77.93
43745;BME280;29359;53.048;8.732;2023-04-30T00:02:16;102441.06;;;5.78;77.41
43745;BME280;29359;53.048;8.732;2023-04-30T00:04:18;102441.94;;;5.77;78.03
43745;BME280;29359;53.048;8.732;2023-04-30T00:06:19;102446.28;;;5.77;77.80
43745;BME280;29359;53.048;8.732;2023-04-30T00:08:21;102441.03;;;5.75;77.28
43745;BME280;29359;53.048;8.732;2023-04-30T00:10:23;102451.50;;;5.75;77.61
43745;BME280;29359;53.048;8.732;2023-04-30T00:12:24;102456.72;;;5.74;77.24
43745;BME280;29359;53.048;8.732;2023-04-30T00:14:26;102447.94;;;5.72;76.98
43745;BME280;29359;53.048;8.732;2023-04-30T00:16:27;102453.13;;;5.68;76.98
43745;BME280;29359;53.048;8.732;2023-04-30T00:18:29;102450.50;;;5.67;76.69
43745;BME280;29359;53.048;8.732;2023-04-30T00:20:31;102455.69;;;5.64;76.19
43745;BME280;29359;53.048;8.732;2023-04-30T00:22:32;102456.47;;;5.61;76.76
43745;BME280;29359;53.048;8.732;2023-04-30T00:24:34;102459.91;;;5.57;76.66
43745;BME280;29359;53.048;8.732;2023-04-30T00:26:35;102452.88;;;5.55;76.07
43745;BME280;29359;53.048;8.732;2023-04-30T00:28:37;102456.31;;;5.52;76.87
43745;BME280;29359;53.048;8.732;2023-04-30T00:30:38;102457.13;;;5.50;76.68
43745;BME280;29359;53.048;8.732;2023-04-30T00:32:40;102457.09;;;5.47;76.89
43745;BME280;29359;53.048;8.732;2023-04-30T00:34:41;102464.91;;;5.45;77.17
43745;BME280;29359;53.048;8.732;2023-04-30T00:36:43;102459.66;;;5.44;76.70
43745;BME280;29359;53.048;8.732;2023-04-30T00:38:44;102465.75;;;5.43;76.07
43745;BME280;29359;53.048;8.732;2023-04-30T00:40:46;102465.69;;;5.40;76.80
43745;BME280;29359;53.048;8.732;2023-04-30T00:42:47;102468.28;;;5.38;76.80
43745;BME280;29359;53.048;8.732;2023-04-30T00:44:49;102462.97;;;5.35;76.93
43745;BME280;29359;53.048;8.732;2023-04-30T00:46:51;102467.28;;;5.31;76.68
43745;BME280;29359;53.048;8.732;2023-04-30T00:48:52;102466.34;;;5.28;76.69
43745;BME280;29359;53.048;8.732;2023-04-30T00:50:54;102468.00;;;5.24;76.19
43745;BME280;29359;53.048;8.732;2023-04-30T00:52:56;102470.59;;;5.23;76.30
43745;BME280;29359;53.048;8.732;2023-04-30T00:54:59;102464.44;;;5.21;76.54
43745;BME280;29359;53.048;8.732;2023-04-30T00:57:02;102469.63;;;5.19;76.51
43745;BME280;29359;53.048;8.732;2023-04-30T00:59:05;102463.47;;;5.17;76.15
43745;BME280;29359;53.048;8.732;2023-04-30T01:01:07;102473.03;;;5.15;77.04
43745;BME280;29359;53.048;8.732;2023-04-30T01:03:09;102474.75;;;5.13;76.23
43745;BME280;29359;53.048;8.732;2023-04-30T01:05:10;102478.19;;;5.11;76.04
43745;BME280;29359;53.048;8.732;2023-04-30T01:07:12;102477.22;;;5.07;76.53
43745;BME280;29359;53.048;8.732;2023-04-30T01:09:14;102480.59;;;5.01;77.07
43745;BME280;29359;53.048;8.732;2023-04-30T01:11:20;102477.94;;;4.98;77.03
43745;BME280;29359;53.048;8.732;2023-04-30T01:13:28;102471.78;;;4.96;76.38
43745;BME280;29359;53.048;8.732;2023-04-30T01:15:37;102478.72;;;4.94;77.32
43745;BME280;29359;53.048;8.732;2023-04-30T01:19:57;102476.81;;;4.87;76.58
43745;BME280;29359;53.048;8.732;2023-04-30T01:22:02;102475.91;;;4.85;76.73
43745;BME280;29359;53.048;8.732;2023-04-30T01:25:06;102475.88;;;4.84;76.94
43745;BME280;29359;53.048;8.732;2023-04-30T01:26:58;102476.63;;;4.78;76.54
43745;BME280;29359;53.048;8.732;2023-04-30T01:29:07;102474.81;;;4.76;76.68
43745;BME280;29359;53.048;8.732;2023-04-30T01:31:13;102480.00;;;4.74;76.70
43745;BME280;29359;53.048;8.732;2023-04-30T01:33:15;102479.09;;;4.72;76.72
43745;BME280;29359;53.048;8.732;2023-04-30T01:35:16;102476.44;;;4.70;76.35
43745;BME280;29359;53.048;8.732;2023-04-30T01:37:26;102475.56;;;4.70;76.42
43745;BME280;29359;53.048;8.732;2023-04-30T01:46:29;102474.41;;;4.57;76.99
43745;BME280;29359;53.048;8.732;2023-04-30T01:48:52;102480.44;;;4.55;77.01
43745;BME280;29359;53.048;8.732;2023-04-30T01:51:19;102479.53;;;4.53;76.72
43745;BME280;29359;53.048;8.732;2023-04-30T01:53:31;102483.84;;;4.51;76.76
43745;BME280;29359;53.048;8.732;2023-04-30T01:55:49;102481.19;;;4.49;76.91
43745;BME280;29359;53.048;8.732;2023-04-30T01:57:57;102477.66;;;4.47;76.76
43745;BME280;29359;53.048;8.732;2023-04-30T01:59:59;102481.06;;;4.43;76.46
43745;BME280;29359;53.048;8.732;2023-04-30T02:02:02;102485.38;;;4.41;76.24
43745;BME280;29359;53.048;8.732;2023-04-30T02:04:03;102479.22;;;4.39;77.01
43745;BME280;29359;53.048;8.732;2023-04-30T02:06:05;102496.59;;;4.37;77.25
43745;BME280;29359;53.048;8.732;2023-04-30T02:08:07;102493.91;;;4.34;76.54
43745;BME280;29359;53.048;8.732;2023-04-30T02:10:09;102493.91;;;4.34;77.10
43745;BME280;29359;53.048;8.732;2023-04-30T02:12:12;102500.84;;;4.33;76.67
43745;BME280;29359;53.048;8.732;2023-04-30T02:14:13;102497.31;;;4.31;76.63
43745;BME280;29359;53.048;8.732;2023-04-30T02:16:15;102499.88;;;4.30;76.81
43745;BME280;29359;53.048;8.732;2023-04-30T02:18:17;102498.94;;;4.26;76.73
43745;BME280;29359;53.048;8.732;2023-04-30T02:20:18;102497.13;;;4.24;76.69
43745;BME280;29359;53.048;8.732;2023-04-30T02:22:20;102505.78;;;4.21;76.25
43745;BME280;29359;53.048;8.732;2023-04-30T02:24:21;102505.75;;;4.20;76.36
43745;BME280;29359;53.048;8.732;2023-04-30T02:26:23;102498.72;;;4.17;76.46
43745;BME280;29359;53.048;8.732;2023-04-30T02:28:25;102501.28;;;4.16;76.48
43745;BME280;29359;53.048;8.732;2023-04-30T02:30:26;102502.97;;;4.14;76.88
43745;BME280;29359;53.048;8.732;2023-04-30T02:32:28;102509.06;;;4.13;76.95
43745;BME280;29359;53.048;8.732;2023-04-30T02:34:29;102510.75;;;4.10;76.58
43745;BME280;29359;53.048;8.732;2023-04-30T02:36:31;102509.81;;;4.08;76.61
43745;BME280;29359;53.048;8.732;2023-04-30T02:38:36;102504.53;;;4.05;76.62
43745;BME280;29359;53.048;8.732;2023-04-30T02:40:40;102515.81;;;4.04;76.68
43745;BME280;29359;53.048;8.732;2023-04-30T02:42:42;102513.13;;;4.01;76.32
43745;BME280;29359;53.048;8.732;2023-04-30T02:44:43;102518.31;;;4.00;77.09
43745;BME280;29359;53.048;8.732;2023-04-30T02:46:45;102513.09;;;4.00;76.79
43745;BME280;29359;53.048;8.732;2023-04-30T02:48:46;102524.34;;;3.97;76.47
43745;BME280;29359;53.048;8.732;2023-04-30T02:50:48;102511.28;;;3.97;76.13
43745;BME280;29359;53.048;8.732;2023-04-30T02:52:49;102517.34;;;3.96;76.09
43745;BME280;29359;53.048;8.732;2023-04-30T02:54:51;102519.94;;;3.95;76.04
43745;BME280;29359;53.048;8.732;2023-04-30T02:56:52;102522.50;;;3.93;76.08
43745;BME280;29359;53.048;8.732;2023-04-30T02:58:54;102521.59;;;3.91;76.27
43745;BME280;29359;53.048;8.732;2023-04-30T03:00:55;102516.25;;;3.88;76.65
43745;BME280;29359;53.048;8.732;2023-04-30T03:02:57;102518.78;;;3.85;76.60
43745;BME280;29359;53.048;8.732;2023-04-30T03:04:59;102515.25;;;3.83;76.69
43745;BME280;29359;53.048;8.732;2023-04-30T03:07:00;102514.31;;;3.81;76.37
43745;BME280;29359;53.048;8.732;2023-04-30T03:09:03;102514.28;;;3.79;76.81
43745;BME280;29359;53.048;8.732;2023-04-30T03:11:05;102522.00;;;3.75;76.55
43745;BME280;29359;53.048;8.732;2023-04-30T03:13:06;102515.91;;;3.74;76.50
43745;BME280;29359;53.048;8.732;2023-04-30T03:15:08;102516.72;;;3.73;76.42
43745;BME280;29359;53.048;8.732;2023-04-30T03:17:10;102523.69;;;3.73;76.51
43745;BME280;29359;53.048;8.732;2023-04-30T03:19:12;102521.03;;;3.71;76.19
43745;BME280;29359;53.048;8.732;2023-04-30T03:21:13;102518.38;;;3.70;76.44
43745;BME280;29359;53.048;8.732;2023-04-30T03:23:15;102520.09;;;3.69;76.05
43745;BME280;29359;53.048;8.732;2023-04-30T03:25:17;102517.50;;;3.69;76.06
43745;BME280;29359;53.048;8.732;2023-04-30T03:27:18;102509.59;;;3.66;76.01
43745;BME280;29359;53.048;8.732;2023-04-30T03:29:20;102519.09;;;3.64;76.21
43745;BME280;29359;53.048;8.732;2023-04-30T03:31:21;102516.44;;;3.63;76.59
43745;BME280;29359;53.048;8.732;2023-04-30T03:33:23;102516.38;;;3.60;76.28
43745;BME280;29359;53.048;8.732;2023-04-30T03:35:24;102523.28;;;3.58;76.36
43745;BME280;29359;53.048;8.732;2023-04-30T03:37:26;102515.41;;;3.56;76.24
43745;BME280;29359;53.048;8.732;2023-04-30T03:39:27;102523.16;;;3.53;76.38
43745;BME280;29359;53.048;8.732;2023-04-30T03:41:29;102520.50;;;3.52;75.88
43745;BME280;29359;53.048;8.732;2023-04-30T03:43:30;102516.97;;;3.50;76.17
43745;BME280;29359;53.048;8.732;2023-04-30T03:45:32;102514.31;;;3.48;76.33
43745;BME280;29359;53.048;8.732;2023-04-30T03:47:34;102517.78;;;3.47;76.40
43745;BME280;29359;53.048;8.732;2023-04-30T03:49:37;102518.53;;;3.44;76.39
43745;BME280;29359;53.048;8.732;2023-04-30T03:51:39;102512.44;;;3.44;76.35
43745;BME280;29359;53.048;8.732;2023-04-30T03:53:42;102520.22;;;3.42;76.40
43745;BME280;29359;53.048;8.732;2023-04-30T03:55:44;102514.91;;;3.39;76.06
43745;BME280;29359;53.048;8.732;2023-04-30T03:57:45;102515.72;;;3.37;76.38
43745;BME280;29359;53.048;8.732;2023-04-30T03:59:47;102515.66;;;3.35;76.14
43745;BME280;29359;53.048;8.732;2023-04-30T04:01:49;102517.41;;;3.35;76.30
43745;BME280;29359;53.048;8.732;2023-04-30T04:03:51;102520.84;;;3.34;76.44
43745;BME280;29359;53.048;8.732;2023-04-30T04:05:52;102518.19;;;3.32;76.27
43745;BME280;29359;53.048;8.732;2023-04-30T04:07:54;102520.72;;;3.29;76.72
43745;BME280;29359;53.048;8.732;2023-04-30T04:09:56;102521.56;;;3.28;76.87
43745;BME280;29359;53.048;8.732;2023-04-30T04:11:57;102526.78;;;3.28;76.43
43745;BME280;29359;53.048;8.732;2023-04-30T04:13:59;102518.91;;;3.27;76.18
43745;BME280;29359;53.048;8.732;2023-04-30T04:16:01;102528.47;;;3.26;75.80
43745;BME280;29359;53.048;8.732;2023-04-30T04:18:03;102525.00;;;3.27;76.52
43745;BME280;29359;53.048;8.732;2023-04-30T04:20:07;102528.50;;;3.28;76.17
43745;BME280;29359;53.048;8.732;2023-04-30T04:22:10;102525.00;;;3.27;75.85
43745;BME280;29359;53.048;8.732;2023-04-30T04:24:12;102529.44;;;3.30;75.82
43745;BME280;29359;53.048;8.732;2023-04-30T04:26:13;102532.03;;;3.30;75.93
43745;BME280;29359;53.048;8.732;2023-04-30T04:28:15;102538.28;;;3.35;75.88
43745;BME280;29359;53.048;8.732;2023-04-30T04:30:19;102534.03;;;3.38;75.77
43745;BME280;29359;53.048;8.732;2023-04-30T04:32:21;102535.78;;;3.39;75.87
43745;BME280;29359;53.048;8.732;2023-04-30T04:34:23;102541.09;;;3.42;75.55
43745;BME280;29359;53.048;8.732;2023-04-30T04:36:25;102541.16;;;3.44;75.64
43745;BME280;29359;53.048;8.732;2023-04-30T04:38:30;102539.63;;;3.51;75.47
43745;BME280;29359;53.048;8.732;2023-04-30T04:40:32;102543.38;;;3.60;75.37
43745;BME280;29359;53.048;8.732;2023-04-30T04:42:35;102548.03;;;3.72;75.32
43745;BME280;29359;53.048;8.732;2023-04-30T04:44:38;102543.97;;;3.83;75.00
43745;BME280;29359;53.048;8.732;2023-04-30T04:46:41;102544.25;;;3.92;75.13
43745;BME280;29359;53.048;8.732;2023-04-30T04:48:45;102546.34;;;4.05;74.97
43745;BME280;29359;53.048;8.732;2023-04-30T04:50:47;102556.19;;;4.16;75.14
43745;BME280;29359;53.048;8.732;2023-04-30T04:52:48;102547.72;;;4.26;74.34
43745;BME280;29359;53.048;8.732;2023-04-30T04:54:50;102553.25;;;4.36;74.08
43745;BME280;29359;53.048;8.732;2023-04-30T04:56:51;102560.47;;;4.47;74.50
43745;BME280;29359;53.048;8.732;2023-04-30T04:58:53;102562.41;;;4.55;74.71
43745;BME280;29359;53.048;8.732;2023-04-30T05:00:54;102572.25;;;4.65;74.54
43745;BME280;29359;53.048;8.732;2023-04-30T05:02:57;102582.06;;;4.76;75.13
43745;BME280;29359;53.048;8.732;2023-04-30T05:04:59;102588.41;;;4.84;75.16
43745;BME280;29359;53.048;8.732;2023-04-30T05:07:01;102578.06;;;4.90;74.38
43745;BME280;29359;53.048;8.732;2023-04-30T05:09:03;102574.63;;;4.92;74.53
43745;BME280;29359;53.048;8.732;2023-04-30T05:11:09;102589.53;;;4.95;75.12
43745;BME280;29359;53.048;8.732;2023-04-30T05:13:10;102582.59;;;4.97;75.50
43745;BME280;29359;53.048;8.732;2023-04-30T05:15:12;102580.94;;;5.00;75.78
43745;BME280;29359;53.048;8.732;2023-04-30T05:17:13;102594.13;;;5.05;76.39
43745;BME280;29359;53.048;8.732;2023-04-30T05:19:15;102587.25;;;5.10;75.80
43745;BME280;29359;53.048;8.732;2023-04-30T05:21:16;102583.81;;;5.13;77.02
43745;BME280;29359;53.048;8.732;2023-04-30T05:23:18;102588.28;;;5.18;77.03
43745;BME280;29359;53.048;8.732;2023-04-30T05:25:19;102591.06;;;5.24;76.83
43745;BME280;29359;53.048;8.732;2023-04-30T05:27:21;102589.50;;;5.32;77.20
43745;BME280;29359;53.048;8.732;2023-04-30T05:29:22;102596.63;;;5.40;77.29
43745;BME280;29359;53.048;8.732;2023-04-30T05:31:24;102593.25;;;5.45;77.37
43745;BME280;29359;53.048;8.732;2023-04-30T05:33:26;102599.50;;;5.52;78.43
43745;BME280;29359;53.048;8.732;2023-04-30T05:35:27;102602.25;;;5.58;78.19
43745;BME280;29359;53.048;8.732;2023-04-30T05:37:30;102608.47;;;5.63;79.59
43745;BME280;29359;53.048;8.732;2023-04-30T05:39:32;102603.28;;;5.64;80.50
43745;BME280;29359;53.048;8.732;2023-04-30T05:41:33;102598.13;;;5.69;81.21
43745;BME280;29359;53.048;8.732;2023-04-30T05:43:35;102598.28;;;5.77;80.60
43745;BME280;29359;53.048;8.732;2023-04-30T05:45:36;102603.69;;;5.86;80.51
43745;BME280;29359;53.048;8.732;2023-04-30T05:47:38;102598.66;;;5.95;80.79
43745;BME280;29359;53.048;8.732;2023-04-30T05:49:39;102596.16;;;6.01;79.61
43745;BME280;29359;53.048;8.732;2023-04-30T05:51:41;102602.47;;;6.09;78.36
43745;BME280;29359;53.048;8.732;2023-04-30T05:53:43;102604.34;;;6.16;77.48
43745;BME280;29359;53.048;8.732;2023-04-30T05:55:44;102601.84;;;6.24;77.10
43745;BME280;29359;53.048;8.732;2023-04-30T05:57:46;102607.19;;;6.30;77.17
43745;BME280;29359;53.048;8.732;2023-04-30T05:59:47;102610.84;;;6.38;77.30
43745;BME280;29359;53.048;8.732;2023-04-30T06:01:49;102603.94;;;6.45;77.81
43745;BME280;29359;53.048;8.732;2023-04-30T06:03:50;102614.53;;;6.49;77.31
43745;BME280;29359;53.048;8.732;2023-04-30T06:05:53;102610.31;;;6.57;76.11
43745;BME280;29359;53.048;8.732;2023-04-30T06:07:54;102611.31;;;6.66;75.90
43745;BME280;29359;53.048;8.732;2023-04-30T06:09:56;102606.19;;;6.73;75.07
43745;BME280;29359;53.048;8.732;2023-04-30T06:11:57;102611.56;;;6.81;74.98
43745;BME280;29359;53.048;8.732;2023-04-30T06:13:59;102610.75;;;6.86;74.71
43745;BME280;29359;53.048;8.732;2023-04-30T06:16:01;102608.28;;;6.94;74.71
43745;BME280;29359;53.048;8.732;2023-04-30T06:18:03;102603.97;;;6.99;75.68
43745;BME280;29359;53.048;8.732;2023-04-30T06:20:05;102610.19;;;7.04;75.81
43745;BME280;29359;53.048;8.732;2023-04-30T06:22:07;102613.75;;;7.09;75.35
43745;BME280;29359;53.048;8.732;2023-04-30T06:24:09;102618.22;;;7.16;74.97
43745;BME280;29359;53.048;8.732;2023-04-30T06:26:10;102627.09;;;7.24;74.48
43745;BME280;29359;53.048;8.732;2023-04-30T06:28:15;102618.44;;;7.32;74.21
43745;BME280;29359;53.048;8.732;2023-04-30T06:30:16;102619.44;;;7.38;74.13
43745;BME280;29359;53.048;8.732;2023-04-30T06:32:18;102614.28;;;7.46;74.05
43745;BME280;29359;53.048;8.732;2023-04-30T06:34:19;102617.84;;;7.51;74.19
43745;BME280;29359;53.048;8.732;2023-04-30T06:36:21;102623.19;;;7.57;74.32
43745;BME280;29359;53.048;8.732;2023-04-30T06:38:23;102621.53;;;7.65;74.33
43745;BME280;29359;53.048;8.732;2023-04-30T06:40:24;102620.72;;;7.71;74.53
43745;BME280;29359;53.048;8.732;2023-04-30T06:42:26;102618.16;;;7.77;74.02
43745;BME280;29359;53.048;8.732;2023-04-30T06:44:27;102611.22;;;7.80;73.79
43745;BME280;29359;53.048;8.732;2023-04-30T06:46:29;102613.03;;;7.84;74.23
43745;BME280;29359;53.048;8.732;2023-04-30T06:48:31;102622.72;;;7.90;74.44
43745;BME280;29359;53.048;8.732;2023-04-30T06:50:33;102614.88;;;7.93;74.14
43745;BME280;29359;53.048;8.732;2023-04-30T06:52:34;102618.41;;;7.97;74.38
43745;BME280;29359;53.048;8.732;2023-04-30T06:54:36;102615.84;;;8.04;74.56
43745;BME280;29359;53.048;8.732;2023-04-30T06:56:37;102627.34;;;8.14;74.22
43745;BME280;29359;53.048;8.732;2023-04-30T06:58:39;102623.91;;;8.21;74.47
43745;BME280;29359;53.048;8.732;2023-04-30T07:00:41;102618.75;;;8.27;74.16
43745;BME280;29359;53.048;8.732;2023-04-30T07:02:43;102620.56;;;8.33;73.87
43745;BME280;29359;53.048;8.732;2023-04-30T07:04:44;102624.16;;;8.39;74.10
43745;BME280;29359;53.048;8.732;2023-04-30T07:06:46;102625.97;;;8.46;73.40
43745;BME280;29359;53.048;8.732;2023-04-30T07:08:47;102619.03;;;8.56;73.84
43745;BME280;29359;53.048;8.732;2023-04-30T07:10:49;102619.09;;;8.64;73.21
43745;BME280;29359;53.048;8.732;2023-04-30T07:12:51;102622.69;;;8.72;73.37
43745;BME280;29359;53.048;8.732;2023-04-30T07:14:52;102625.41;;;8.82;73.46
43745;BME280;29359;53.048;8.732;2023-04-30T07:16:54;102621.09;;;8.92;73.05
43745;BME280;29359;53.048;8.732;2023-04-30T07:18:55;102617.66;;;9.05;72.31
43745;BME280;29359;53.048;8.732;2023-04-30T07:20:57;102616.91;;;9.19;71.89
43745;BME280;29359;53.048;8.732;2023-04-30T07:22:58;102625.66;;;9.16;68.84
43745;BME280;29359;53.048;8.732;2023-04-30T07:25:00;102622.06;;;9.09;67.51
43745;BME280;29359;53.048;8.732;2023-04-30T07:27:01;102621.25;;;9.10;67.54
43745;BME280;29359;53.048;8.732;2023-04-30T07:29:04;102624.78;;;9.17;66.99
43745;BME280;29359;53.048;8.732;2023-04-30T07:31:05;102620.38;;;9.15;66.97
43745;BME280;29359;53.048;8.732;2023-04-30T07:33:08;102623.97;;;9.26;67.96
43745;BME280;29359;53.048;8.732;2023-04-30T07:35:09;102619.63;;;9.38;72.20
43745;BME280;29359;53.048;8.732;2023-04-30T07:37:11;102619.69;;;9.49;72.69
43745;BME280;29359;53.048;8.732;2023-04-30T07:39:13;102624.16;;;9.61;72.23
43745;BME280;29359;53.048;8.732;2023-04-30T07:41:15;102626.81;;;9.67;71.46
43745;BME280;29359;53.048;8.732;2023-04-30T07:43:16;102622.41;;;9.66;70.52
43745;BME280;29359;53.048;8.732;2023-04-30T07:45:18;102629.47;;;9.67;71.38
43745;BME280;29359;53.048;8.732;2023-04-30T07:47:19;102634.72;;;9.67;68.10
43745;BME280;29359;53.048;8.732;2023-04-30T07:49:21;102629.44;;;9.64;65.59
43745;BME280;29359;53.048;8.732;2023-04-30T07:51:23;102625.06;;;9.66;65.98
43745;BME280;29359;53.048;8.732;2023-04-30T07:53:24;102627.72;;;9.73;64.93
43745;BME280;29359;53.048;8.732;2023-04-30T07:55:26;102620.72;;;9.85;67.09
43745;BME280;29359;53.048;8.732;2023-04-30T07:57:27;102617.28;;;9.98;70.60
43745;BME280;29359;53.048;8.732;2023-04-30T07:59:29;102623.47;;;10.12;71.17
43745;BME280;29359;53.048;8.732;2023-04-30T08:01:31;102623.50;;;10.24;71.62
43745;BME280;29359;53.048;8.732;2023-04-30T08:03:32;102627.91;;;10.34;70.95
43745;BME280;29359;53.048;8.732;2023-04-30T08:05:34;102627.94;;;10.37;67.82
43745;BME280;29359;53.048;8.732;2023-04-30T08:07:36;102627.97;;;10.41;69.70
43745;BME280;29359;53.048;8.732;2023-04-30T08:09:37;102621.81;;;10.48;71.10
43745;BME280;29359;53.048;8.732;2023-04-30T08:11:39;102616.53;;;10.57;71.06
43745;BME280;29359;53.048;8.732;2023-04-30T08:13:41;102620.03;;;10.65;70.46
43745;BME280;29359;53.048;8.732;2023-04-30T08:15:42;102620.91;;;10.73;68.69
43745;BME280;29359;53.048;8.732;2023-04-30T08:17:44;102627.06;;;10.78;65.99
43745;BME280;29359;53.048;8.732;2023-04-30T08:19:46;102623.56;;;10.79;65.82
43745;BME280;29359;53.048;8.732;2023-04-30T08:21:47;102635.88;;;10.83;68.91
43745;BME280;29359;53.048;8.732;2023-04-30T08:23:49;102628.81;;;10.84;69.42
43745;BME280;29359;53.048;8.732;2023-04-30T08:25:50;102627.06;;;10.83;68.60
43745;BME280;29359;53.048;8.732;2023-04-30T08:27:52;102627.09;;;10.84;68.32
43745;BME280;29359;53.048;8.732;2023-04-30T08:29:54;102627.09;;;10.86;68.71
43745;BME280;29359;53.048;8.732;2023-04-30T08:31:58;102622.69;;;10.91;68.00
43745;BME280;29359;53.048;8.732;2023-04-30T08:34:02;102626.22;;;10.94;68.97
43745;BME280;29359;53.048;8.732;2023-04-30T08:36:04;102625.31;;;10.97;69.62
43745;BME280;29359;53.048;8.732;2023-04-30T08:38:06;102617.41;;;10.95;69.59
43745;BME280;29359;53.048;8.732;2023-04-30T08:40:07;102623.56;;;10.93;67.37
43745;BME280;29359;53.048;8.732;2023-04-30T08:42:13;102621.81;;;10.93;66.15
43745;BME280;29359;53.048;8.732;2023-04-30T08:44:16;102627.09;;;10.95;65.47
43745;BME280;29359;53.048;8.732;2023-04-30T08:46:19;102622.66;;;11.00;68.00
43745;BME280;29359;53.048;8.732;2023-04-30T08:48:22;102630.59;;;10.98;69.60
43745;BME280;29359;53.048;8.732;2023-04-30T08:50:26;102627.97;;;10.92;68.51
43745;BME280;29359;53.048;8.732;2023-04-30T08:52:28;102619.16;;;10.69;62.10
43745;BME280;29359;53.048;8.732;2023-04-30T08:54:32;102625.31;;;10.71;67.06
43745;BME280;29359;53.048;8.732;2023-04-30T08:56:33;102623.56;;;10.75;66.46
43745;BME280;29359;53.048;8.732;2023-04-30T08:58:35;102625.31;;;10.83;67.23
43745;BME280;29359;53.048;8.732;2023-04-30T09:00:39;102618.25;;;10.84;62.79
43745;BME280;29359;53.048;8.732;2023-04-30T09:02:41;102623.56;;;10.88;62.67
43745;BME280;29359;53.048;8.732;2023-04-30T09:04:43;102625.31;;;10.98;65.12
43745;BME280;29359;53.048;8.732;2023-04-30T09:06:45;102626.19;;;11.07;65.39
43745;BME280;29359;53.048;8.732;2023-04-30T09:08:48;102630.56;;;11.11;63.30
43745;BME280;29359;53.048;8.732;2023-04-30T09:10:50;102627.06;;;11.13;62.86
43745;BME280;29359;53.048;8.732;2023-04-30T09:13:07;102620.88;;;11.17;63.59
43745;BME280;29359;53.048;8.732;2023-04-30T09:15:10;102618.22;;;11.16;61.41
43745;BME280;29359;53.048;8.732;2023-04-30T09:17:20;102623.50;;;11.25;66.90
43745;BME280;29359;53.048;8.732;2023-04-30T09:19:26;102623.50;;;11.22;62.84
43745;BME280;29359;53.048;8.732;2023-04-30T09:21:32;102625.28;;;11.27;65.12
43745;BME280;29359;53.048;8.732;2023-04-30T09:23:33;102619.09;;;11.35;67.11
43745;BME280;29359;53.048;8.732;2023-04-30T09:25:39;102625.25;;;11.38;67.88
43745;BME280;29359;53.048;8.732;2023-04-30T09:27:42;102620.84;;;11.40;67.53
43745;BME280;29359;53.048;8.732;2023-04-30T09:29:44;102626.13;;;11.42;67.39
43745;BME280;29359;53.048;8.732;2023-04-30T09:31:46;102618.19;;;11.42;67.64
43745;BME280;29359;53.048;8.732;2023-04-30T09:33:48;102623.47;;;11.43;65.24
43745;BME280;29359;53.048;8.732;2023-04-30T09:35:49;102616.44;;;11.39;60.67
43745;BME280;29359;53.048;8.732;2023-04-30T09:37:51;102622.56;;;11.46;66.43
43745;BME280;29359;53.048;8.732;2023-04-30T09:39:53;102619.91;;;11.50;67.21
43745;BME280;29359;53.048;8.732;2023-04-30T09:42:09;102609.31;;;11.53;63.77
43745;BME280;29359;53.048;8.732;2023-04-30T09:44:26;102612.84;;;11.52;58.10
43745;BME280;29359;53.048;8.732;2023-04-30T09:46:33;102611.13;;;11.42;58.17
43745;BME280;29359;53.048;8.732;2023-04-30T09:48:40;102601.38;;;11.55;62.64
43745;BME280;29359;53.048;8.732;2023-04-30T09:50:42;102598.69;;;11.64;64.26
43745;BME280;29359;53.048;8.732;2023-04-30T09:52:52;102604.84;;;11.74;61.38
43745;BME280;29359;53.048;8.732;2023-04-30T09:54:54;102605.72;;;11.82;62.89
43745;BME280;29359;53.048;8.732;2023-04-30T09:56:57;102603.91;;;11.91;63.43
43745;BME280;29359;53.048;8.732;2023-04-30T09:59:00;102609.13;;;12.01;61.92
43745;BME280;29359;53.048;8.732;2023-04-30T10:01:04;102600.34;;;11.94;56.18
43745;BME280;29359;53.048;8.732;2023-04-30T10:03:09;102599.53;;;11.81;56.30
43745;BME280;29359;53.048;8.732;2023-04-30T10:05:11;102596.00;;;11.84;57.60
43745;BME280;29359;53.048;8.732;2023-04-30T10:07:19;102591.56;;;11.89;56.87
43745;BME280;29359;53.048;8.732;2023-04-30T10:09:25;102591.53;;;11.93;56.21
43745;BME280;29359;53.048;8.732;2023-04-30T10:11:31;102592.31;;;12.09;60.46
43745;BME280;29359;53.048;8.732;2023-04-30T10:13:41;102591.38;;;12.21;64.65
43745;BME280;29359;53.048;8.732;2023-04-30T10:15:47;102589.50;;;12.34;65.25
43745;BME280;29359;53.048;8.732;2023-04-30T10:18:05;102585.00;;;12.45;63.60
43745;BME280;29359;53.048;8.732;2023-04-30T10:20:08;102588.47;;;12.57;62.12
43745;BME280;29359;53.048;8.732;2023-04-30T10:22:10;102583.97;;;12.67;57.02
43745;BME280;29359;53.048;8.732;2023-04-30T10:24:13;102579.38;;;12.83;58.35
43745;BME280;29359;53.048;8.732;2023-04-30T10:26:16;102584.53;;;12.98;63.50
43745;BME280;29359;53.048;8.732;2023-04-30T10:28:18;102585.31;;;13.11;65.18
43745;BME280;29359;53.048;8.732;2023-04-30T10:30:21;102579.94;;;13.20;66.30
43745;BME280;29359;53.048;8.732;2023-04-30T10:32:25;102580.75;;;13.25;67.39
43745;BME280;29359;53.048;8.732;2023-04-30T10:34:52;102578.78;;;13.41;60.99
43745;BME280;29359;53.048;8.732;2023-04-30T10:37:46;102573.56;;;13.33;67.89
43745;BME280;29359;53.048;8.732;2023-04-30T10:39:26;102582.38;;;13.37;69.81
43745;BME280;29359;53.048;8.732;2023-04-30T10:41:29;102569.81;;;13.52;69.78
43745;BME280;29359;53.048;8.732;2023-04-30T10:43:32;102570.47;;;13.70;68.92
43745;BME280;29359;53.048;8.732;2023-04-30T10:45:37;102565.81;;;13.87;56.74
43745;BME280;29359;53.048;8.732;2023-04-30T10:47:41;102562.66;;;14.21;55.95
43745;BME280;29359;53.048;8.732;2023-04-30T10:49:48;102560.34;;;14.56;52.76
43745;BME280;29359;53.048;8.732;2023-04-30T10:51:50;102560.63;;;14.90;59.14
43745;BME280;29359;53.048;8.732;2023-04-30T10:53:55;102560.88;;;15.24;54.79
43745;BME280;29359;53.048;8.732;2023-04-30T10:56:01;102558.66;;;15.45;66.86
43745;BME280;29359;53.048;8.732;2023-04-30T10:58:26;102561.53;;;15.79;61.40